Time;durP1;ratioP1;P1;durP2;ratioP2;P2;SDS_P1;SDS_P2;PMS_P1;PMS_P2;Temp;Humidity;BMP_temperature;BMP_pressure;BME280_temperature;BME280_humidity;BME280_pressure;Samples;Min_cycle;Max_cycle;Signal;HPM_P1;HPM_P2
2021/09/13 00:00:23;;;;;;;3.15;2.88;;;13.50;99.90;;;;;;5047720;28;37092;-79
2021/09/13 00:02:49;;;;;;;8.30;3.47;;;13.40;99.90;;;;;;5047580;28;37348;-79
2021/09/13 00:05:15;;;;;;;6.50;3.30;;;13.40;99.90;;;;;;5051297;28;38070;-79
2021/09/13 00:07:42;;;;;;;3.63;2.40;;;13.40;99.90;;;;;;5050988;28;39065;-78
2021/09/13 00:10:08;;;;;;;4.45;3.25;;;13.40;99.90;;;;;;5048265;28;37184;-78
2021/09/13 00:12:34;;;;;;;6.80;3.30;;;13.40;99.90;;;;;;5049736;28;38393;-78
2021/09/13 00:15:00;;;;;;;4.82;3.45;;;13.40;99.90;;;;;;5049847;28;38893;-79
2021/09/13 00:17:27;;;;;;;5.43;3.63;;;13.30;99.90;;;;;;5065992;28;37658;-78
2021/09/13 00:19:53;;;;;;;4.80;3.17;;;13.40;99.90;;;;;;5072483;28;37019;-79
2021/09/13 00:22:19;;;;;;;6.05;3.38;;;13.30;99.90;;;;;;5066192;28;38529;-79
2021/09/13 00:24:45;;;;;;;4.95;3.30;;;13.30;99.90;;;;;;5068949;28;38225;-78
2021/09/13 00:27:11;;;;;;;4.32;3.05;;;13.40;99.90;;;;;;5051123;28;38593;-78
2021/09/13 00:29:37;;;;;;;5.40;3.58;;;13.30;99.90;;;;;;5066084;28;36317;-78
2021/09/13 00:32:04;;;;;;;6.32;3.35;;;13.30;99.90;;;;;;5046895;28;38147;-78
2021/09/13 00:34:30;;;;;;;6.20;3.33;;;13.30;99.90;;;;;;5058329;28;37457;-78
2021/09/13 00:36:56;;;;;;;6.47;3.75;;;13.30;99.90;;;;;;5074563;28;37642;-77
2021/09/13 00:39:22;;;;;;;7.45;3.40;;;13.20;99.90;;;;;;5071619;28;37839;-79
2021/09/13 00:41:48;;;;;;;3.63;3.33;;;13.20;99.90;;;;;;5051864;28;39629;-78
2021/09/13 00:44:14;;;;;;;8.05;4.05;;;13.20;99.90;;;;;;5066838;28;38754;-79
2021/09/13 00:46:40;;;;;;;4.32;3.92;;;13.20;99.90;;;;;;5048650;28;39192;-78
2021/09/13 00:49:06;;;;;;;6.97;4.30;;;13.20;99.90;;;;;;5054479;28;37215;-78
2021/09/13 00:51:32;;;;;;;4.90;3.30;;;13.20;99.90;;;;;;5052302;28;42699;-79
2021/09/13 00:53:59;;;;;;;6.22;4.03;;;13.20;99.90;;;;;;5054822;28;39119;-79
2021/09/13 00:56:25;;;;;;;9.52;3.97;;;13.10;99.90;;;;;;5052530;28;40067;-79
2021/09/13 00:58:52;;;;;;;5.78;3.60;;;13.10;99.90;;;;;;5053458;28;37499;-79
2021/09/13 01:01:19;;;;;;;5.78;4.07;;;13.00;99.90;;;;;;5054503;28;39520;-79
2021/09/13 01:03:45;;;;;;;3.67;3.38;;;13.00;99.90;;;;;;5059549;28;38232;-79
2021/09/13 01:06:11;;;;;;;8.23;3.58;;;13.00;99.90;;;;;;5055706;28;38444;-79
2021/09/13 01:08:37;;;;;;;7.72;3.10;;;12.90;99.90;;;;;;5071811;28;37384;-79
2021/09/13 01:11:04;;;;;;;9.80;4.40;;;12.90;99.90;;;;;;5051973;28;37987;-79
2021/09/13 01:13:30;;;;;;;10.13;4.30;;;12.90;99.90;;;;;;5074168;28;38246;-79
2021/09/13 01:16:01;;;;;;;6.85;4.10;;;12.90;99.90;;;;;;5052974;28;39728;-79
2021/09/13 01:18:27;;;;;;;6.28;5.10;;;12.90;99.90;;;;;;5056663;28;46997;-79
2021/09/13 01:20:54;;;;;;;7.60;5.25;;;13.00;99.90;;;;;;5072624;28;38646;-79
2021/09/13 01:23:35;;;;;;;9.23;4.65;;;13.00;99.90;;;;;;5056072;28;38990;-79
2021/09/13 01:26:02;;;;;;;8.85;6.28;;;12.90;99.90;;;;;;5052283;28;38113;-79
2021/09/13 01:28:28;;;;;;;6.47;5.68;;;12.90;99.90;;;;;;5073635;28;48351;-78
2021/09/13 01:30:55;;;;;;;5.93;4.60;;;12.90;99.90;;;;;;5053212;28;40719;-79
2021/09/13 01:33:22;;;;;;;5.28;4.78;;;12.90;99.90;;;;;;5054503;28;40020;-78
2021/09/13 01:35:50;;;;;;;7.65;5.13;;;12.90;99.90;;;;;;5071647;28;37692;-79
2021/09/13 01:38:18;;;;;;;8.90;6.57;;;12.80;99.90;;;;;;5055451;28;39009;-78
2021/09/13 01:40:47;;;;;;;7.30;4.97;;;12.80;99.90;;;;;;5050715;28;40491;-79
2021/09/13 01:43:13;;;;;;;8.38;4.93;;;12.80;99.90;;;;;;5071639;28;39271;-78
2021/09/13 01:45:39;;;;;;;8.82;5.22;;;12.80;99.90;;;;;;5056216;28;37684;-78
2021/09/13 01:48:06;;;;;;;7.13;5.25;;;12.80;99.90;;;;;;5054164;28;37679;-78
2021/09/13 01:50:32;;;;;;;6.97;5.00;;;12.80;99.90;;;;;;5070283;28;38885;-78
2021/09/13 01:52:58;;;;;;;6.97;4.63;;;12.80;99.90;;;;;;5068072;28;37894;-78
2021/09/13 01:55:24;;;;;;;6.65;4.72;;;12.80;99.90;;;;;;5067785;28;37630;-78
2021/09/13 01:57:51;;;;;;;8.98;4.80;;;12.70;99.90;;;;;;5055519;28;37491;-78
2021/09/13 02:00:17;;;;;;;6.95;4.70;;;12.70;99.90;;;;;;5052700;28;38610;-78
2021/09/13 02:02:43;;;;;;;6.97;5.20;;;12.70;99.90;;;;;;5063941;27;38543;-78
2021/09/13 02:05:09;;;;;;;8.18;5.50;;;12.70;99.90;;;;;;5055851;28;38257;-78
2021/09/13 02:07:36;;;;;;;5.97;5.00;;;12.70;99.90;;;;;;5053873;28;39295;-78
2021/09/13 02:10:04;;;;;;;5.65;4.85;;;12.70;99.90;;;;;;5051734;28;40558;-77
2021/09/13 02:12:30;;;;;;;6.75;4.47;;;12.70;99.90;;;;;;5068169;28;47429;-78
2021/09/13 02:14:56;;;;;;;6.05;5.47;;;12.70;99.90;;;;;;5071834;28;37803;-78
2021/09/13 02:17:23;;;;;;;8.05;5.40;;;12.70;99.90;;;;;;5053671;28;39205;-78
2021/09/13 02:19:49;;;;;;;6.10;4.97;;;12.70;99.90;;;;;;5066839;28;38910;-78
2021/09/13 02:22:16;;;;;;;5.35;4.35;;;12.60;99.90;;;;;;5050393;28;39404;-78
2021/09/13 02:24:42;;;;;;;5.78;5.18;;;12.60;99.90;;;;;;5049976;28;38092;-79
2021/09/13 02:27:08;;;;;;;7.82;5.70;;;12.60;99.90;;;;;;5051949;27;38898;-78
2021/09/13 02:29:35;;;;;;;7.50;6.28;;;12.60;99.90;;;;;;5048452;28;39848;-78
2021/09/13 02:32:02;;;;;;;9.85;6.28;;;12.60;99.90;;;;;;5050903;28;38869;-78
2021/09/13 02:34:29;;;;;;;8.18;5.00;;;12.70;99.90;;;;;;5079521;28;47551;-78
2021/09/13 02:36:55;;;;;;;6.60;5.50;;;12.60;99.90;;;;;;5052653;28;39045;-78
2021/09/13 02:39:21;;;;;;;8.93;6.03;;;12.60;99.90;;;;;;5070616;28;38270;-79
2021/09/13 02:41:47;;;;;;;7.90;5.15;;;12.60;99.90;;;;;;5071467;28;38113;-78
2021/09/13 02:44:13;;;;;;;7.28;5.68;;;12.60;99.90;;;;;;5070474;28;38540;-78
2021/09/13 02:46:39;;;;;;;8.55;5.60;;;12.60;99.90;;;;;;5052337;28;38356;-78
2021/09/13 02:49:05;;;;;;;8.45;5.30;;;12.60;99.90;;;;;;5070715;28;39581;-78
2021/09/13 02:51:31;;;;;;;6.13;5.20;;;12.60;99.90;;;;;;5072780;28;38725;-78
2021/09/13 02:53:58;;;;;;;7.60;4.97;;;12.60;99.90;;;;;;5057126;28;38000;-78
2021/09/13 02:56:24;;;;;;;9.38;5.82;;;12.60;99.90;;;;;;5069861;28;37638;-78
2021/09/13 02:58:50;;;;;;;6.88;4.72;;;12.60;99.90;;;;;;5070958;28;37697;-78
2021/09/13 03:01:16;;;;;;;5.40;4.30;;;12.60;99.90;;;;;;5071845;28;38002;-79
2021/09/13 03:03:42;;;;;;;6.97;5.03;;;12.70;99.90;;;;;;5056324;28;38391;-78
2021/09/13 03:06:09;;;;;;;9.55;5.10;;;12.70;99.90;;;;;;5052437;28;37600;-78
2021/09/13 03:08:36;;;;;;;6.40;4.80;;;12.80;99.90;;;;;;5069517;28;38966;-78
2021/09/13 03:11:03;;;;;;;5.22;4.72;;;12.80;99.90;;;;;;5049140;28;38312;-78
2021/09/13 03:13:30;;;;;;;8.55;5.20;;;12.90;99.90;;;;;;5051516;28;38604;-78
2021/09/13 03:15:56;;;;;;;5.65;4.80;;;12.90;99.90;;;;;;5049820;28;37477;-78
2021/09/13 03:18:22;;;;;;;5.90;4.63;;;12.90;99.90;;;;;;5068425;28;38716;-78
2021/09/13 03:20:48;;;;;;;7.85;4.60;;;12.90;99.90;;;;;;5053081;28;38673;-78
2021/09/13 03:23:14;;;;;;;5.15;4.53;;;12.90;99.90;;;;;;5073175;28;37286;-78
2021/09/13 03:25:40;;;;;;;7.20;4.85;;;12.90;99.90;;;;;;5069052;28;36875;-80
2021/09/13 03:28:06;;;;;;;7.43;4.40;;;12.80;99.90;;;;;;5048638;28;40457;-78
2021/09/13 03:30:32;;;;;;;6.68;4.50;;;12.90;99.90;;;;;;5052712;28;39726;-79
2021/09/13 03:32:58;;;;;;;4.47;4.07;;;12.90;99.90;;;;;;5055159;28;39574;-78
2021/09/13 03:35:25;;;;;;;10.18;5.78;;;12.90;99.90;;;;;;5069881;28;37304;-79
2021/09/13 03:37:51;;;;;;;6.40;4.97;;;12.90;99.90;;;;;;5052982;28;38158;-79
2021/09/13 03:40:17;;;;;;;9.18;5.20;;;12.90;99.90;;;;;;5067350;27;37796;-79
2021/09/13 03:42:43;;;;;;;7.45;5.60;;;12.90;99.90;;;;;;5072761;28;38328;-78
2021/09/13 03:45:09;;;;;;;8.18;4.93;;;12.90;99.90;;;;;;5048193;28;37550;-78
2021/09/13 03:47:35;;;;;;;5.90;5.00;;;12.90;99.90;;;;;;5053410;28;40744;-78
2021/09/13 03:50:02;;;;;;;7.55;5.00;;;12.90;99.90;;;;;;5067236;28;39446;-77
2021/09/13 03:52:28;;;;;;;6.25;5.35;;;12.90;99.90;;;;;;5064336;28;48353;-77
2021/09/13 03:54:54;;;;;;;9.45;5.13;;;12.90;99.90;;;;;;5068937;28;37038;-77
2021/09/13 03:57:20;;;;;;;10.90;5.60;;;12.90;99.90;;;;;;5051359;28;39379;-77
2021/09/13 03:59:46;;;;;;;4.75;4.25;;;12.90;99.90;;;;;;5070403;28;41615;-77
2021/09/13 04:02:12;;;;;;;6.97;4.90;;;12.90;99.90;;;;;;5050013;28;40007;-78
2021/09/13 04:04:40;;;;;;;7.75;5.07;;;12.90;99.90;;;;;;5050534;28;38113;-80
2021/09/13 04:09:53;;;;;;;10.23;5.57;;;12.90;99.90;;;;;;5069774;28;39650;-78
2021/09/13 04:12:20;;;;;;;6.88;5.05;;;12.90;99.90;;;;;;5071258;28;37820;-78
2021/09/13 04:14:46;;;;;;;7.15;5.70;;;12.90;99.90;;;;;;5071879;28;36803;-79
2021/09/13 04:17:12;;;;;;;6.78;6.13;;;12.80;99.90;;;;;;5070035;28;37316;-78
2021/09/13 04:19:38;;;;;;;6.78;5.25;;;12.80;99.90;;;;;;5070261;28;38185;-78
2021/09/13 04:22:04;;;;;;;7.35;6.57;;;12.90;99.90;;;;;;5071039;27;37254;-78
2021/09/13 04:24:30;;;;;;;7.57;6.07;;;12.90;99.90;;;;;;5071499;28;37740;-79
2021/09/13 04:26:56;;;;;;;9.38;7.07;;;12.90;99.90;;;;;;5074886;27;36941;-78
2021/09/13 04:29:22;;;;;;;7.97;6.22;;;12.80;99.90;;;;;;5058329;28;40882;-78
2021/09/13 04:31:48;;;;;;;7.30;5.63;;;12.80;99.90;;;;;;5053400;28;38435;-79
2021/09/13 04:34:15;;;;;;;6.57;5.82;;;12.80;99.90;;;;;;5053778;28;38305;-78
2021/09/13 04:36:41;;;;;;;9.50;5.57;;;12.80;99.90;;;;;;5054643;28;40074;-78
2021/09/13 04:39:07;;;;;;;5.88;5.28;;;12.80;99.90;;;;;;5056666;28;38694;-78
2021/09/13 04:41:33;;;;;;;9.75;6.13;;;12.70;99.90;;;;;;5053127;28;37722;-78
2021/09/13 04:43:59;;;;;;;8.90;6.55;;;12.70;99.90;;;;;;5072961;28;37942;-78
2021/09/13 04:46:25;;;;;;;10.95;6.47;;;12.70;99.90;;;;;;5072319;28;38340;-79
2021/09/13 04:48:51;;;;;;;10.68;7.45;;;12.70;99.90;;;;;;5073784;28;38311;-78
2021/09/13 04:51:17;;;;;;;7.47;6.30;;;12.70;99.90;;;;;;5069999;28;37489;-79
2021/09/13 04:53:43;;;;;;;10.15;6.75;;;12.70;99.90;;;;;;5072898;28;37597;-79
2021/09/13 04:56:09;;;;;;;13.15;8.23;;;12.80;99.90;;;;;;5071669;28;38596;-78
2021/09/13 04:58:35;;;;;;;11.95;8.32;;;12.80;99.90;;;;;;5053914;28;37817;-78
2021/09/13 05:01:01;;;;;;;13.60;8.70;;;12.90;99.90;;;;;;5050902;28;38034;-76
2021/09/13 05:03:27;;;;;;;9.88;7.68;;;12.90;99.90;;;;;;5071346;28;36612;-78
2021/09/13 05:05:55;;;;;;;9.75;7.45;;;13.00;99.90;;;;;;5072027;28;38789;-78
2021/09/13 05:08:21;;;;;;;10.73;8.10;;;13.00;99.90;;;;;;5075125;28;36064;-79
2021/09/13 05:10:47;;;;;;;10.52;7.93;;;13.00;99.90;;;;;;5048546;28;38391;-78
2021/09/13 05:13:13;;;;;;;11.13;8.38;;;13.10;99.90;;;;;;5071628;28;38185;-78
2021/09/13 05:15:39;;;;;;;11.98;8.80;;;13.10;99.90;;;;;;5070227;28;38923;-78
2021/09/13 05:18:05;;;;;;;11.63;8.23;;;13.10;99.90;;;;;;5049473;28;39021;-78
2021/09/13 05:20:31;;;;;;;9.98;7.20;;;13.10;99.90;;;;;;5073002;28;39182;-78
2021/09/13 05:22:57;;;;;;;13.00;9.80;;;13.10;99.90;;;;;;5077697;28;37037;-79
2021/09/13 05:25:23;;;;;;;15.05;9.43;;;13.10;99.90;;;;;;5075448;28;38761;-78
2021/09/13 05:27:49;;;;;;;10.85;9.20;;;13.10;99.90;;;;;;5075611;28;38585;-78
2021/09/13 05:30:16;;;;;;;14.05;8.80;;;13.10;99.90;;;;;;5060271;28;38420;-78
2021/09/13 05:32:42;;;;;;;11.20;7.95;;;13.10;99.90;;;;;;5056096;28;37456;-78
2021/09/13 05:35:09;;;;;;;11.45;8.02;;;13.20;99.90;;;;;;5078207;28;39704;-78
2021/09/13 05:37:35;;;;;;;12.60;7.65;;;13.20;99.90;;;;;;5060036;28;37521;-78
2021/09/13 05:40:03;;;;;;;9.95;8.07;;;13.20;99.90;;;;;;5078276;28;35844;-78
2021/09/13 05:42:29;;;;;;;10.25;6.97;;;13.20;99.90;;;;;;5082718;28;48156;-78
2021/09/13 05:44:57;;;;;;;12.00;8.10;;;13.20;99.90;;;;;;5087748;28;39929;-78
2021/09/13 05:47:23;;;;;;;12.90;8.20;;;13.20;99.90;;;;;;5063037;28;37369;-78
2021/09/13 05:49:49;;;;;;;10.35;7.60;;;13.30;99.90;;;;;;5057703;28;34568;-78
2021/09/13 05:52:15;;;;;;;9.48;7.72;;;13.40;99.90;;;;;;5057230;28;37248;-77
2021/09/13 05:54:42;;;;;;;9.45;8.45;;;13.50;99.90;;;;;;5080512;28;39326;-78
2021/09/13 05:57:08;;;;;;;9.85;6.75;;;13.50;99.90;;;;;;5079939;28;38358;-78
2021/09/13 05:59:34;;;;;;;11.13;7.22;;;13.60;99.90;;;;;;5081760;28;38374;-78
2021/09/13 06:02:00;;;;;;;10.18;8.30;;;13.70;99.90;;;;;;5077378;28;37170;-79
2021/09/13 06:04:29;;;;;;;11.63;7.13;;;13.80;99.90;;;;;;5076364;28;48710;-81
2021/09/13 06:06:55;;;;;;;12.70;6.28;;;13.90;99.90;;;;;;5065398;28;38669;-80
2021/09/13 06:09:21;;;;;;;11.45;8.30;;;14.00;99.90;;;;;;5062570;28;37324;-79
2021/09/13 06:11:48;;;;;;;11.50;8.25;;;14.10;99.90;;;;;;5054151;28;36208;-79
2021/09/13 06:14:16;;;;;;;10.32;7.80;;;14.20;99.90;;;;;;5082861;28;38845;-79
2021/09/13 06:16:43;;;;;;;9.65;8.60;;;14.30;99.90;;;;;;5062939;28;37325;-82
2021/09/13 06:19:09;;;;;;;11.60;9.48;;;14.30;99.90;;;;;;5055175;28;36741;-82
2021/09/13 06:21:36;;;;;;;11.23;8.40;;;14.50;99.90;;;;;;5059510;28;38212;-81
2021/09/13 06:24:02;;;;;;;11.00;9.27;;;14.60;99.90;;;;;;5060803;28;38578;-80
2021/09/13 06:26:28;;;;;;;11.43;9.07;;;14.70;99.90;;;;;;5059260;28;37211;-81
2021/09/13 06:28:54;;;;;;;13.75;8.60;;;14.80;99.90;;;;;;5062322;28;37644;-80
2021/09/13 06:31:20;;;;;;;12.15;8.38;;;14.90;99.90;;;;;;5056916;28;36012;-80
2021/09/13 06:33:46;;;;;;;15.13;8.80;;;15.00;99.90;;;;;;5055853;28;37975;-81
2021/09/13 06:36:13;;;;;;;11.30;8.80;;;15.00;99.90;;;;;;5055956;28;38249;-81
2021/09/13 06:38:39;;;;;;;12.13;8.57;;;15.00;99.90;;;;;;5061931;28;36658;-81
2021/09/13 06:41:06;;;;;;;11.25;8.07;;;15.10;99.90;;;;;;5058917;28;38303;-80
2021/09/13 06:43:32;;;;;;;12.13;8.38;;;15.10;99.90;;;;;;5064171;28;39808;-81
2021/09/13 06:48:44;;;;;;;11.88;8.35;;;15.20;99.90;;;;;;5063277;28;49344;-82
2021/09/13 06:51:10;;;;;;;11.02;8.13;;;15.30;99.90;;;;;;5054798;28;36178;-80
2021/09/13 06:53:36;;;;;;;9.63;7.35;;;15.40;99.90;;;;;;5060451;28;40598;-80
2021/09/13 06:56:04;;;;;;;10.48;7.65;;;15.40;99.90;;;;;;5054425;28;39142;-79
2021/09/13 06:58:31;;;;;;;10.40;7.40;;;15.50;99.90;;;;;;5060818;28;38538;-81
2021/09/13 07:00:58;;;;;;;8.68;6.85;;;15.60;99.90;;;;;;5058499;28;38783;-79
2021/09/13 07:03:24;;;;;;;9.02;6.57;;;15.70;99.90;;;;;;5061736;28;38977;-79
2021/09/13 07:05:51;;;;;;;12.40;6.65;;;15.80;99.90;;;;;;5064434;28;38501;-79
2021/09/13 07:08:17;;;;;;;9.88;4.95;;;15.90;99.90;;;;;;5061003;28;38204;-79
2021/09/13 07:10:44;;;;;;;8.88;4.45;;;15.90;99.90;;;;;;5057847;28;37617;-79
2021/09/13 07:13:10;;;;;;;8.23;5.28;;;15.90;99.90;;;;;;5060849;28;37645;-79
2021/09/13 07:15:36;;;;;;;8.95;4.47;;;16.00;99.90;;;;;;5062995;28;38669;-79
2021/09/13 07:18:02;;;;;;;7.25;4.60;;;16.00;99.90;;;;;;5061056;28;38102;-78
2021/09/13 07:20:28;;;;;;;7.40;5.57;;;16.20;99.90;;;;;;5064257;28;48247;-78
2021/09/13 07:22:54;;;;;;;8.30;4.50;;;16.30;99.90;;;;;;5079159;28;37663;-79
2021/09/13 07:25:20;;;;;;;7.32;4.60;;;16.30;99.90;;;;;;5079135;28;38328;-78
2021/09/13 07:27:46;;;;;;;8.27;4.38;;;16.40;99.90;;;;;;5083550;28;37736;-79
2021/09/13 07:30:13;;;;;;;9.98;4.82;;;16.40;99.90;;;;;;5063055;28;37531;-79
2021/09/13 07:32:40;;;;;;;8.55;4.35;;;16.50;99.90;;;;;;5056601;28;38736;-78
2021/09/13 07:35:08;;;;;;;9.63;4.97;;;16.60;99.90;;;;;;5063065;28;38427;-78
2021/09/13 07:37:35;;;;;;;6.07;4.35;;;16.60;99.90;;;;;;5080369;28;38092;-79
2021/09/13 07:40:02;;;;;;;5.75;4.45;;;16.70;99.90;;;;;;5079664;28;38265;-77
2021/09/13 07:42:29;;;;;;;9.65;5.00;;;16.70;99.90;;;;;;5060013;28;37636;-79
2021/09/13 07:44:55;;;;;;;7.85;4.00;;;16.60;99.90;;;;;;5086676;28;39093;-79
2021/09/13 07:47:22;;;;;;;8.30;4.25;;;16.70;99.90;;;;;;5081286;28;38922;-78
2021/09/13 07:49:48;;;;;;;5.93;3.63;;;16.70;99.90;;;;;;5079686;28;37404;-78
2021/09/13 07:52:14;;;;;;;7.13;3.50;;;16.80;99.90;;;;;;5061851;28;38835;-79
2021/09/13 07:54:41;;;;;;;8.25;3.40;;;16.90;99.90;;;;;;5064317;28;38498;-79
2021/09/13 07:57:08;;;;;;;5.03;2.95;;;17.00;99.90;;;;;;5063437;28;38604;-78
2021/09/13 07:59:34;;;;;;;7.10;3.08;;;17.00;99.90;;;;;;5078500;28;35905;-80
2021/09/13 08:02:00;;;;;;;7.75;3.40;;;17.10;99.90;;;;;;5078592;28;38675;-78
2021/09/13 08:04:26;;;;;;;8.13;3.13;;;17.10;99.90;;;;;;5059313;28;39001;-79
2021/09/13 08:06:52;;;;;;;6.82;2.28;;;17.20;99.90;;;;;;5080173;28;38609;-79
2021/09/13 08:09:18;;;;;;;3.35;1.30;;;17.30;99.90;;;;;;5069512;28;36734;-80
2021/09/13 08:11:44;;;;;;;3.00;0.98;;;17.40;99.90;;;;;;5066499;28;38587;-81
2021/09/13 08:14:10;;;;;;;6.30;1.40;;;17.40;99.90;;;;;;5069723;28;37403;-80
2021/09/13 08:16:36;;;;;;;4.82;1.42;;;17.40;99.90;;;;;;5064170;28;38439;-81
2021/09/13 08:19:03;;;;;;;4.30;1.67;;;17.70;99.90;;;;;;5064937;28;35959;-80
2021/09/13 08:21:29;;;;;;;6.93;2.00;;;17.90;99.90;;;;;;5074166;28;38163;-80
2021/09/13 08:23:57;;;;;;;4.40;1.55;;;18.00;99.90;;;;;;5082512;28;38497;-80
2021/09/13 08:26:23;;;;;;;3.97;1.30;;;18.10;99.90;;;;;;5067791;28;37080;-80
2021/09/13 08:28:49;;;;;;;5.68;1.60;;;18.30;99.90;;;;;;5069801;28;36359;-79
2021/09/13 08:31:15;;;;;;;3.15;1.25;;;18.40;99.90;;;;;;5069040;28;38057;-80
2021/09/13 08:33:41;;;;;;;7.30;1.40;;;18.50;99.90;;;;;;5071851;28;38226;-80
2021/09/13 08:36:08;;;;;;;3.30;1.10;;;18.60;99.90;;;;;;5068256;28;36990;-81
2021/09/13 08:38:34;;;;;;;4.05;0.70;;;18.60;99.90;;;;;;5084095;28;36039;-81
2021/09/13 08:41:00;;;;;;;2.30;0.70;;;18.50;99.90;;;;;;5085968;28;38732;-81
2021/09/13 08:43:28;;;;;;;5.05;1.10;;;18.60;99.90;;;;;;5067742;28;40752;-80
2021/09/13 08:51:29;;;;;;;3.72;1.50;;;18.60;99.90;;;;;;5084098;28;39077;-80
2021/09/13 08:53:58;;;;;;;3.72;0.88;;;18.60;99.90;;;;;;5083871;28;48440;-80
2021/09/13 08:56:29;;;;;;;5.75;1.33;;;18.70;99.90;;;;;;5067011;28;38881;-80
2021/09/13 08:58:55;;;;;;;4.72;1.05;;;18.80;99.90;;;;;;5065480;28;36242;-80
2021/09/13 09:01:22;;;;;;;6.40;1.60;;;18.90;99.90;;;;;;5084475;28;38745;-80
2021/09/13 09:03:50;;;;;;;7.72;1.63;;;18.70;99.90;;;;;;5087327;28;39281;-80
2021/09/13 09:06:36;;;;;;;2.72;1.27;;;18.50;99.90;;;;;;5081364;28;38803;-81
2021/09/13 09:09:03;;;;;;;3.45;1.20;;;18.60;99.90;;;;;;5068132;28;36200;-80
2021/09/13 09:11:56;;;;;;;4.72;1.55;;;18.80;99.90;;;;;;5065502;28;38347;-81
2021/09/13 09:14:33;;;;;;;3.75;1.45;;;18.90;99.90;;;;;;5084455;28;39178;-80
2021/09/13 09:17:13;;;;;;;3.67;1.30;;;19.00;99.90;;;;;;5070135;28;37078;-81
2021/09/13 09:19:40;;;;;;;5.00;1.60;;;19.20;99.90;;;;;;5089096;28;48958;-82
2021/09/13 09:22:26;;;;;;;3.88;1.70;;;18.90;99.90;;;;;;5083492;28;39800;-81
2021/09/13 09:24:54;;;;;;;3.72;1.48;;;18.80;99.90;;;;;;5067863;28;37279;-81
2021/09/13 09:27:21;;;;;;;3.90;1.83;;;19.10;99.90;;;;;;5061701;28;37318;-81
2021/09/13 09:29:47;;;;;;;4.05;1.27;;;19.20;99.90;;;;;;5068884;28;37593;-80
2021/09/13 09:32:27;;;;;;;5.55;1.67;;;19.20;99.90;;;;;;5068304;28;36763;-81
2021/09/13 09:34:55;;;;;;;8.27;1.60;;;19.10;99.90;;;;;;5067918;28;37626;-80
2021/09/13 09:37:25;;;;;;;7.95;2.30;;;19.00;99.90;;;;;;5085511;28;37969;-81
2021/09/13 09:39:59;;;;;;;4.85;1.65;;;19.10;99.90;;;;;;5082336;28;37969;-81
2021/09/13 09:42:30;;;;;;;9.52;2.17;;;19.30;99.90;;;;;;5062841;28;37697;-80
2021/09/13 09:44:58;;;;;;;5.68;1.63;;;19.50;99.90;;;;;;5083638;28;38276;-80
2021/09/13 09:47:24;;;;;;;3.83;1.50;;;19.60;99.90;;;;;;5064347;28;37065;-80
2021/09/13 09:49:53;;;;;;;7.82;2.13;;;19.30;99.90;;;;;;5080347;28;38205;-81
2021/09/13 09:52:37;;;;;;;7.55;2.08;;;19.20;99.90;;;;;;5063783;28;37452;-80
2021/09/13 09:55:21;;;;;;;3.30;1.60;;;19.40;99.90;;;;;;5086685;28;37812;-82
2021/09/13 09:58:04;;;;;;;6.82;2.00;;;19.60;99.90;;;;;;5063201;28;46752;-82
2021/09/13 10:00:32;;;;;;;6.88;2.63;;;19.80;99.90;;;;;;5091012;28;49652;-82
2021/09/13 10:03:34;;;;;;;7.60;2.00;;;19.90;99.90;;;;;;5085002;27;37925;-83
2021/09/13 10:06:00;;;;;;;4.95;2.53;;;19.80;99.90;;;;;;5085860;28;47271;-78
2021/09/13 10:08:27;;;;;;;6.18;2.17;;;19.80;99.90;;;;;;5069685;28;38501;-79
2021/09/13 10:10:54;;;;;;;9.43;2.25;;;19.80;99.90;;;;;;5065547;28;35789;-80
2021/09/13 10:13:21;;;;;;;6.38;2.33;;;19.70;99.90;;;;;;5076932;28;39241;-80
2021/09/13 10:15:54;;;;;;;4.80;2.28;;;19.60;99.90;;;;;;5095542;28;39504;-81
2021/09/13 10:18:20;;;;;;;4.05;2.00;;;19.60;99.90;;;;;;5065377;28;37441;-80
2021/09/13 10:20:46;;;;;;;6.65;2.67;;;19.70;99.90;;;;;;5074447;28;35904;-80
2021/09/13 10:23:15;;;;;;;4.75;1.80;;;19.80;99.90;;;;;;5072534;28;37970;-79
2021/09/13 10:25:41;;;;;;;4.00;2.03;;;19.60;99.90;;;;;;5069396;22;38099;-79
2021/09/13 10:28:08;;;;;;;10.15;2.83;;;19.40;99.90;;;;;;5086848;28;38035;-77
2021/09/13 10:30:51;;;;;;;8.32;2.13;;;19.40;99.90;;;;;;5073514;28;36458;-78
2021/09/13 10:33:17;;;;;;;4.95;2.25;;;19.10;99.90;;;;;;5070640;28;38068;-79
2021/09/13 10:36:01;;;;;;;7.90;2.35;;;19.10;99.90;;;;;;5089689;28;39558;-81
2021/09/13 10:38:47;;;;;;;7.43;2.28;;;19.00;99.90;;;;;;5075617;28;47250;-81
2021/09/13 10:41:54;;;;;;;6.90;1.98;;;18.90;99.90;;;;;;5072382;28;36366;-82
2021/09/13 10:44:30;;;;;;;6.93;2.42;;;19.10;99.90;;;;;;5093140;28;38731;-80
2021/09/13 10:47:04;;;;;;;4.18;1.73;;;19.10;99.90;;;;;;5088698;28;38535;-81
2021/09/13 10:49:30;;;;;;;5.43;2.20;;;19.10;99.90;;;;;;5059494;28;48441;-80
2021/09/13 10:52:27;;;;;;;4.75;1.73;;;19.10;99.90;;;;;;5061100;28;36364;-79
2021/09/13 10:55:09;;;;;;;3.75;1.90;;;19.20;99.90;;;;;;5060753;28;47179;-80
2021/09/13 10:57:54;;;;;;;6.45;1.95;;;19.30;99.90;;;;;;5067054;28;48945;-81
2021/09/13 11:00:43;;;;;;;6.55;2.05;;;19.40;99.90;;;;;;5056856;28;37393;-81
2021/09/13 11:06:15;;;;;;;4.75;1.98;;;19.00;99.90;;;;;;5072642;28;39943;-82
2021/09/13 11:09:03;;;;;;;4.85;2.30;;;19.10;99.90;;;;;;5035462;28;47531;-79
2021/09/13 11:11:32;;;;;;;3.97;1.60;;;19.10;99.90;;;;;;5067112;28;47292;-81
2021/09/13 11:14:12;;;;;;;9.70;2.90;;;19.00;99.90;;;;;;5072072;28;37353;-81
2021/09/13 11:16:41;;;;;;;2.38;1.50;;;18.80;99.90;;;;;;5051639;28;47421;-81
2021/09/13 11:19:10;;;;;;;4.38;2.00;;;18.90;99.90;;;;;;5071952;28;37851;-80
2021/09/13 11:21:46;;;;;;;2.70;1.55;;;19.10;99.90;;;;;;5061921;28;37395;-81
2021/09/13 11:24:18;;;;;;;3.92;1.58;;;19.30;99.90;;;;;;5077538;28;36473;-81
2021/09/13 11:26:47;;;;;;;;;;;19.40;99.90;;;;;;5068185;28;39909;-81
2021/09/13 11:29:17;;;;;;;6.70;1.50;;;19.30;99.90;;;;;;5072439;28;40599;-81
2021/09/13 11:31:46;;;;;;;3.42;1.40;;;19.10;99.90;;;;;;5071203;28;38360;-81
2021/09/13 11:34:19;;;;;;;2.15;1.10;;;19.20;99.90;;;;;;5068649;28;38683;-81
2021/09/13 11:37:07;;;;;;;2.95;1.10;;;19.50;99.90;;;;;;5064274;28;39001;-82
2021/09/13 11:39:38;;;;;;;4.20;1.33;;;19.70;99.90;;;;;;5091164;28;47771;-82
2021/09/13 11:42:16;;;;;;;3.13;1.15;;;19.90;99.90;;;;;;5047505;28;37493;-81
2021/09/13 11:45:11;;;;;;;2.75;1.23;;;20.20;99.90;;;;;;5071722;28;37860;-82
2021/09/13 11:47:51;;;;;;;2.58;0.90;;;20.40;99.90;;;;;;5023366;28;48336;-81
2021/09/13 11:50:30;;;;;;;2.08;1.02;;;20.90;99.90;;;;;;5050279;28;38519;-82
2021/09/13 11:53:11;;;;;;;2.55;1.00;;;21.00;99.90;;;;;;5066341;22;39153;-82
2021/09/13 11:55:37;;;;;;;4.25;1.35;;;20.80;99.90;;;;;;5048406;28;46961;-81
2021/09/13 11:58:06;;;;;;;3.38;1.45;;;20.90;99.90;;;;;;5044048;28;39675;-80
2021/09/13 12:00:37;;;;;;;3.58;1.13;;;21.20;99.90;;;;;;5038846;28;39146;-81
2021/09/13 12:03:07;;;;;;;2.00;1.08;;;21.50;99.90;;;;;;5042789;28;39477;-81
2021/09/13 12:05:38;;;;;;;3.47;1.50;;;21.80;99.90;;;;;;5030711;28;36901;-81
2021/09/13 12:08:25;;;;;;;3.55;1.10;;;21.90;99.90;;;;;;5049352;28;39585;-81
2021/09/13 12:10:51;;;;;;;2.53;1.10;;;21.60;99.90;;;;;;5042454;28;38764;-81
2021/09/13 12:13:19;;;;;;;4.93;1.13;;;21.30;99.90;;;;;;5043219;28;38491;-81
2021/09/13 12:15:51;;;;;;;3.58;1.20;;;21.30;99.90;;;;;;5028898;28;37780;-80
2021/09/13 12:18:19;;;;;;;;;;;21.20;99.90;;;;;;5044617;28;39289;-81
2021/09/13 12:20:46;;;;;;;4.53;1.17;;;21.00;99.90;;;;;;5045185;28;39225;-81
2021/09/13 12:23:13;;;;;;;2.55;1.42;;;20.90;99.90;;;;;;5032365;28;37707;-79
2021/09/13 12:25:39;;;;;;;5.80;1.58;;;20.90;99.90;;;;;;5041892;28;37221;-79
2021/09/13 12:28:05;;;;;;;1.77;0.93;;;20.80;99.90;;;;;;5042578;28;38935;-79
2021/09/13 12:30:34;;;;;;;3.35;2.17;;;21.00;99.90;;;;;;5039431;28;36633;-78
2021/09/13 12:33:01;;;;;;;3.97;1.63;;;21.20;99.90;;;;;;5033289;28;37112;-78
2021/09/13 12:35:45;;;;;;;2.35;1.50;;;21.40;99.90;;;;;;5028830;28;38082;-80
2021/09/13 12:38:14;;;;;;;3.58;1.30;;;21.50;99.90;;;;;;5026735;28;39142;-78
2021/09/13 12:40:48;;;;;;;2.90;1.55;;;21.20;99.90;;;;;;5029894;28;38756;-79
2021/09/13 12:43:20;;;;;;;4.43;1.15;;;20.90;99.90;;;;;;5042744;28;37706;-77
2021/09/13 12:45:46;;;;;;;5.57;1.13;;;20.90;99.90;;;;;;5029634;28;39299;-79
2021/09/13 12:48:24;;;;;;;2.80;1.25;;;21.10;99.90;;;;;;5042884;28;39059;-78
2021/09/13 12:50:55;;;;;;;6.15;1.30;;;21.20;99.90;;;;;;5046094;28;38336;-78
2021/09/13 12:53:30;;;;;;;2.13;1.05;;;21.30;99.90;;;;;;5036835;28;36536;-78
2021/09/13 12:56:13;;;;;;;2.20;1.13;;;21.20;99.90;;;;;;5042014;28;37896;-78
2021/09/13 12:58:39;;;;;;;2.15;1.10;;;21.10;99.90;;;;;;5042038;28;48773;-77
2021/09/13 13:01:09;;;;;;;2.85;1.05;;;21.20;99.90;;;;;;5040027;28;38322;-81
2021/09/13 13:03:36;;;;;;;2.78;1.00;;;21.40;99.90;;;;;;5029797;28;38431;-80
2021/09/13 13:06:14;;;;;;;2.03;1.05;;;21.40;99.90;;;;;;5026719;28;36625;-80